sensor_id;sensor_type;location;lat;lon;timestamp;temperature;humidity
24444;DHT22;13346;50.984;5.822;2024-01-15T00:01:02;0.80;99.90
24444;DHT22;13346;50.984;5.822;2024-01-15T00:03:31;0.80;99.90
24444;DHT22;13346;50.984;5.822;2024-01-15T00:05:58;0.80;99.90
24444;DHT22;13346;50.984;5.822;2024-01-15T00:08:26;0.70;99.90
24444;DHT22;13346;50.984;5.822;2024-01-15T00:10:53;0.70;99.90
24444;DHT22;13346;50.984;5.822;2024-01-15T00:13:20;0.70;99.90
24444;DHT22;13346;50.984;5.822;2024-01-15T00:15:47;0.70;99.90
24444;DHT22;13346;50.984;5.822;2024-01-15T00:18:15;0.70;99.90
24444;DHT22;13346;50.984;5.822;2024-01-15T00:20:43;0.70;99.90
24444;DHT22;13346;50.984;5.822;2024-01-15T00:23:10;0.70;99.90
24444;DHT22;13346;50.984;5.822;2024-01-15T00:25:38;0.70;99.90
24444;DHT22;13346;50.984;5.822;2024-01-15T00:28:05;0.70;99.90
24444;DHT22;13346;50.984;5.822;2024-01-15T00:30:32;0.80;99.90
24444;DHT22;13346;50.984;5.822;2024-01-15T00:33:00;0.80;99.90
24444;DHT22;13346;50.984;5.822;2024-01-15T00:35:27;0.80;99.90
24444;DHT22;13346;50.984;5.822;2024-01-15T00:37:55;0.90;99.90
24444;DHT22;13346;50.984;5.822;2024-01-15T00:40:25;0.80;99.90
24444;DHT22;13346;50.984;5.822;2024-01-15T00:42:52;0.80;99.90
24444;DHT22;13346;50.984;5.822;2024-01-15T00:45:20;0.80;99.90
24444;DHT22;13346;50.984;5.822;2024-01-15T00:47:47;0.70;99.90
24444;DHT22;13346;50.984;5.822;2024-01-15T00:50:14;0.70;99.90
24444;DHT22;13346;50.984;5.822;2024-01-15T00:52:43;0.60;99.90
24444;DHT22;13346;50.984;5.822;2024-01-15T00:55:11;0.70;99.90
24444;DHT22;13346;50.984;5.822;2024-01-15T00:57:39;0.70;99.90
24444;DHT22;13346;50.984;5.822;2024-01-15T01:00:07;0.70;99.90
24444;DHT22;13346;50.984;5.822;2024-01-15T01:02:35;0.70;99.90
24444;DHT22;13346;50.984;5.822;2024-01-15T01:05:02;0.70;99.90
24444;DHT22;13346;50.984;5.822;2024-01-15T01:07:30;0.70;99.90
24444;DHT22;13346;50.984;5.822;2024-01-15T01:09:57;0.70;99.90
24444;DHT22;13346;50.984;5.822;2024-01-15T01:12:26;0.70;99.90
24444;DHT22;13346;50.984;5.822;2024-01-15T01:14:53;0.70;99.90
24444;DHT22;13346;50.984;5.822;2024-01-15T01:17:20;0.70;99.90
24444;DHT22;13346;50.984;5.822;2024-01-15T01:19:47;0.70;99.90
24444;DHT22;13346;50.984;5.822;2024-01-15T01:22:15;0.70;99.90
24444;DHT22;13346;50.984;5.822;2024-01-15T01:24:42;0.70;99.90
24444;DHT22;13346;50.984;5.822;2024-01-15T01:27:09;0.60;99.90
24444;DHT22;13346;50.984;5.822;2024-01-15T01:29:38;0.60;99.90
24444;DHT22;13346;50.984;5.822;2024-01-15T01:32:05;0.70;99.90
24444;DHT22;13346;50.984;5.822;2024-01-15T01:34:35;0.60;99.90
24444;DHT22;13346;50.984;5.822;2024-01-15T01:37:06;0.60;99.90
24444;DHT22;13346;50.984;5.822;2024-01-15T01:39:34;0.60;99.90
24444;DHT22;13346;50.984;5.822;2024-01-15T01:42:01;0.60;99.90
24444;DHT22;13346;50.984;5.822;2024-01-15T01:44:28;0.60;99.90
24444;DHT22;13346;50.984;5.822;2024-01-15T01:46:57;0.50;99.90
24444;DHT22;13346;50.984;5.822;2024-01-15T01:49:26;0.50;99.90
24444;DHT22;13346;50.984;5.822;2024-01-15T01:51:54;0.50;99.90
24444;DHT22;13346;50.984;5.822;2024-01-15T01:54:22;0.50;99.90
24444;DHT22;13346;50.984;5.822;2024-01-15T01:56:50;0.50;99.90
24444;DHT22;13346;50.984;5.822;2024-01-15T01:59:18;0.50;99.90
24444;DHT22;13346;50.984;5.822;2024-01-15T02:01:46;0.40;99.90
24444;DHT22;13346;50.984;5.822;2024-01-15T02:04:15;0.40;99.90
24444;DHT22;13346;50.984;5.822;2024-01-15T02:06:41;0.40;99.90
24444;DHT22;13346;50.984;5.822;2024-01-15T02:09:08;0.40;99.90
24444;DHT22;13346;50.984;5.822;2024-01-15T02:11:36;0.40;99.90
24444;DHT22;13346;50.984;5.822;2024-01-15T02:14:04;0.40;99.90
24444;DHT22;13346;50.984;5.822;2024-01-15T02:16:31;0.40;99.90
24444;DHT22;13346;50.984;5.822;2024-01-15T02:18:58;0.40;99.90
24444;DHT22;13346;50.984;5.822;2024-01-15T02:21:27;0.40;99.90
24444;DHT22;13346;50.984;5.822;2024-01-15T02:23:56;0.50;99.90
24444;DHT22;13346;50.984;5.822;2024-01-15T02:26:23;0.50;99.90
24444;DHT22;13346;50.984;5.822;2024-01-15T02:28:51;0.40;99.90
24444;DHT22;13346;50.984;5.822;2024-01-15T02:31:18;0.50;99.90
24444;DHT22;13346;50.984;5.822;2024-01-15T02:33:45;0.50;99.90
24444;DHT22;13346;50.984;5.822;2024-01-15T02:36:13;0.50;99.90
24444;DHT22;13346;50.984;5.822;2024-01-15T02:38:41;0.60;99.90
24444;DHT22;13346;50.984;5.822;2024-01-15T02:41:10;0.60;99.90
24444;DHT22;13346;50.984;5.822;2024-01-15T02:43:40;0.60;99.90
24444;DHT22;13346;50.984;5.822;2024-01-15T02:46:08;0.50;99.90
24444;DHT22;13346;50.984;5.822;2024-01-15T02:48:35;0.50;99.90
24444;DHT22;13346;50.984;5.822;2024-01-15T02:51:03;0.50;99.90
24444;DHT22;13346;50.984;5.822;2024-01-15T02:53:30;0.50;99.90
24444;DHT22;13346;50.984;5.822;2024-01-15T02:55:57;0.50;99.90
24444;DHT22;13346;50.984;5.822;2024-01-15T02:58:26;0.50;99.90
24444;DHT22;13346;50.984;5.822;2024-01-15T03:00:53;0.50;99.90
24444;DHT22;13346;50.984;5.822;2024-01-15T03:03:20;0.50;99.90
24444;DHT22;13346;50.984;5.822;2024-01-15T03:05:48;0.50;99.90
24444;DHT22;13346;50.984;5.822;2024-01-15T03:08:15;0.50;99.90
24444;DHT22;13346;50.984;5.822;2024-01-15T03:10:43;0.50;99.90
24444;DHT22;13346;50.984;5.822;2024-01-15T03:13:10;0.50;99.90
24444;DHT22;13346;50.984;5.822;2024-01-15T03:15:39;0.50;99.90
24444;DHT22;13346;50.984;5.822;2024-01-15T03:18:07;0.50;99.90
24444;DHT22;13346;50.984;5.822;2024-01-15T03:20:34;0.50;99.90
24444;DHT22;13346;50.984;5.822;2024-01-15T03:23:01;0.50;99.90
24444;DHT22;13346;50.984;5.822;2024-01-15T03:25:28;0.50;99.90
24444;DHT22;13346;50.984;5.822;2024-01-15T03:27:55;0.60;99.90
24444;DHT22;13346;50.984;5.822;2024-01-15T03:30:23;0.60;99.90
24444;DHT22;13346;50.984;5.822;2024-01-15T03:32:51;0.60;99.90
24444;DHT22;13346;50.984;5.822;2024-01-15T03:35:19;0.60;99.90
24444;DHT22;13346;50.984;5.822;2024-01-15T03:37:46;0.70;99.90
24444;DHT22;13346;50.984;5.822;2024-01-15T03:40:13;0.70;99.90
24444;DHT22;13346;50.984;5.822;2024-01-15T03:42:41;0.60;99.90
24444;DHT22;13346;50.984;5.822;2024-01-15T03:45:08;0.70;99.90
24444;DHT22;13346;50.984;5.822;2024-01-15T03:47:35;0.70;99.90
24444;DHT22;13346;50.984;5.822;2024-01-15T03:50:05;0.60;99.90
24444;DHT22;13346;50.984;5.822;2024-01-15T03:52:32;0.70;99.90
24444;DHT22;13346;50.984;5.822;2024-01-15T03:54:59;0.70;99.90
24444;DHT22;13346;50.984;5.822;2024-01-15T03:57:27;0.70;99.90
24444;DHT22;13346;50.984;5.822;2024-01-15T03:59:54;0.70;99.90
24444;DHT22;13346;50.984;5.822;2024-01-15T04:02:21;0.70;99.90
24444;DHT22;13346;50.984;5.822;2024-01-15T04:04:48;0.70;99.90
24444;DHT22;13346;50.984;5.822;2024-01-15T04:07:17;0.60;99.90
24444;DHT22;13346;50.984;5.822;2024-01-15T04:09:44;0.70;99.90
24444;DHT22;13346;50.984;5.822;2024-01-15T04:12:12;0.80;99.90
24444;DHT22;13346;50.984;5.822;2024-01-15T04:14:39;0.80;99.90
24444;DHT22;13346;50.984;5.822;2024-01-15T04:17:06;0.80;99.90
24444;DHT22;13346;50.984;5.822;2024-01-15T04:19:33;0.80;99.90
24444;DHT22;13346;50.984;5.822;2024-01-15T04:22:02;0.80;99.90
24444;DHT22;13346;50.984;5.822;2024-01-15T04:24:33;0.70;99.90
24444;DHT22;13346;50.984;5.822;2024-01-15T04:27:00;0.70;99.90
24444;DHT22;13346;50.984;5.822;2024-01-15T04:29:27;0.60;99.90
24444;DHT22;13346;50.984;5.822;2024-01-15T04:31:54;0.60;99.90
24444;DHT22;13346;50.984;5.822;2024-01-15T04:34:22;0.60;99.90
24444;DHT22;13346;50.984;5.822;2024-01-15T04:36:49;0.60;99.90
24444;DHT22;13346;50.984;5.822;2024-01-15T04:39:16;0.60;99.90
24444;DHT22;13346;50.984;5.822;2024-01-15T04:41:45;0.50;99.90
24444;DHT22;13346;50.984;5.822;2024-01-15T04:44:12;0.60;99.90
24444;DHT22;13346;50.984;5.822;2024-01-15T04:46:39;0.60;99.90
24444;DHT22;13346;50.984;5.822;2024-01-15T04:49:07;0.50;99.90
24444;DHT22;13346;50.984;5.822;2024-01-15T04:51:34;0.50;99.90
24444;DHT22;13346;50.984;5.822;2024-01-15T04:54:02;0.50;99.90
24444;DHT22;13346;50.984;5.822;2024-01-15T04:56:29;0.60;99.90
24444;DHT22;13346;50.984;5.822;2024-01-15T04:58:58;0.60;99.90
24444;DHT22;13346;50.984;5.822;2024-01-15T05:01:25;0.60;99.90
24444;DHT22;13346;50.984;5.822;2024-01-15T05:03:52;0.60;99.90
24444;DHT22;13346;50.984;5.822;2024-01-15T05:06:20;0.70;99.90
24444;DHT22;13346;50.984;5.822;2024-01-15T05:08:47;0.70;99.90
24444;DHT22;13346;50.984;5.822;2024-01-15T05:11:14;0.70;99.90
24444;DHT22;13346;50.984;5.822;2024-01-15T05:13:42;0.70;99.90
24444;DHT22;13346;50.984;5.822;2024-01-15T05:16:10;0.60;99.90
24444;DHT22;13346;50.984;5.822;2024-01-15T05:18:38;0.60;99.90
24444;DHT22;13346;50.984;5.822;2024-01-15T05:21:05;0.60;99.90
24444;DHT22;13346;50.984;5.822;2024-01-15T05:23:32;0.50;99.90
24444;DHT22;13346;50.984;5.822;2024-01-15T05:25:59;0.50;99.90
24444;DHT22;13346;50.984;5.822;2024-01-15T05:28:27;0.60;99.90
24444;DHT22;13346;50.984;5.822;2024-01-15T05:30:54;0.50;99.90
24444;DHT22;13346;50.984;5.822;2024-01-15T05:33:23;0.50;99.90
24444;DHT22;13346;50.984;5.822;2024-01-15T05:35:50;0.50;99.90
24444;DHT22;13346;50.984;5.822;2024-01-15T05:38:17;0.60;99.90
24444;DHT22;13346;50.984;5.822;2024-01-15T05:40:45;0.60;99.90
24444;DHT22;13346;50.984;5.822;2024-01-15T05:43:12;0.60;99.90
24444;DHT22;13346;50.984;5.822;2024-01-15T05:45:43;0.60;99.90
24444;DHT22;13346;50.984;5.822;2024-01-15T05:48:10;0.60;99.90
24444;DHT22;13346;50.984;5.822;2024-01-15T05:50:41;0.60;99.90
24444;DHT22;13346;50.984;5.822;2024-01-15T05:53:08;0.70;99.90
24444;DHT22;13346;50.984;5.822;2024-01-15T05:55:36;0.70;99.90
24444;DHT22;13346;50.984;5.822;2024-01-15T05:58:04;0.70;99.90
24444;DHT22;13346;50.984;5.822;2024-01-15T06:00:31;0.70;99.90
24444;DHT22;13346;50.984;5.822;2024-01-15T06:03:01;0.70;99.90
24444;DHT22;13346;50.984;5.822;2024-01-15T06:05:28;0.70;99.90
24444;DHT22;13346;50.984;5.822;2024-01-15T06:07:57;0.70;99.90
24444;DHT22;13346;50.984;5.822;2024-01-15T06:10:24;0.70;99.90
24444;DHT22;13346;50.984;5.822;2024-01-15T06:12:51;0.70;99.90
24444;DHT22;13346;50.984;5.822;2024-01-15T06:15:18;0.70;99.90
24444;DHT22;13346;50.984;5.822;2024-01-15T06:17:45;0.70;99.90
24444;DHT22;13346;50.984;5.822;2024-01-15T06:20:13;0.70;99.90
24444;DHT22;13346;50.984;5.822;2024-01-15T06:22:40;0.70;99.90
24444;DHT22;13346;50.984;5.822;2024-01-15T06:25:09;0.70;99.90
24444;DHT22;13346;50.984;5.822;2024-01-15T06:27:36;0.70;99.90
24444;DHT22;13346;50.984;5.822;2024-01-15T06:30:04;0.70;99.90
24444;DHT22;13346;50.984;5.822;2024-01-15T06:32:32;0.70;99.90
24444;DHT22;13346;50.984;5.822;2024-01-15T06:34:59;0.70;99.90
24444;DHT22;13346;50.984;5.822;2024-01-15T06:37:26;0.80;99.90
24444;DHT22;13346;50.984;5.822;2024-01-15T06:39:53;0.70;99.90
24444;DHT22;13346;50.984;5.822;2024-01-15T06:42:22;0.80;99.90
24444;DHT22;13346;50.984;5.822;2024-01-15T06:44:49;0.80;99.90
24444;DHT22;13346;50.984;5.822;2024-01-15T06:47:16;0.80;99.90
24444;DHT22;13346;50.984;5.822;2024-01-15T06:49:44;0.70;99.90
24444;DHT22;13346;50.984;5.822;2024-01-15T06:52:11;0.70;99.90
24444;DHT22;13346;50.984;5.822;2024-01-15T06:54:39;0.70;99.90
24444;DHT22;13346;50.984;5.822;2024-01-15T06:57:07;0.70;99.90
24444;DHT22;13346;50.984;5.822;2024-01-15T06:59:35;0.70;99.90
24444;DHT22;13346;50.984;5.822;2024-01-15T07:02:03;0.70;99.90
24444;DHT22;13346;50.984;5.822;2024-01-15T07:04:30;0.70;99.90
24444;DHT22;13346;50.984;5.822;2024-01-15T07:06:57;0.70;99.90
24444;DHT22;13346;50.984;5.822;2024-01-15T07:09:25;0.70;99.90
24444;DHT22;13346;50.984;5.822;2024-01-15T07:11:52;0.70;99.90
24444;DHT22;13346;50.984;5.822;2024-01-15T07:14:19;0.70;99.90
24444;DHT22;13346;50.984;5.822;2024-01-15T07:16:48;0.70;99.90
24444;DHT22;13346;50.984;5.822;2024-01-15T07:19:15;0.70;99.90
24444;DHT22;13346;50.984;5.822;2024-01-15T07:21:42;0.70;99.90
24444;DHT22;13346;50.984;5.822;2024-01-15T07:24:10;0.70;99.90
24444;DHT22;13346;50.984;5.822;2024-01-15T07:26:37;0.70;99.90
24444;DHT22;13346;50.984;5.822;2024-01-15T07:29:04;0.70;99.90
24444;DHT22;13346;50.984;5.822;2024-01-15T07:31:32;0.70;99.90
24444;DHT22;13346;50.984;5.822;2024-01-15T07:34:01;0.70;99.90
24444;DHT22;13346;50.984;5.822;2024-01-15T07:36:28;0.70;99.90
24444;DHT22;13346;50.984;5.822;2024-01-15T07:38:55;0.70;99.90
24444;DHT22;13346;50.984;5.822;2024-01-15T07:41:22;0.80;99.90
24444;DHT22;13346;50.984;5.822;2024-01-15T07:43:50;0.80;99.90
24444;DHT22;13346;50.984;5.822;2024-01-15T07:46:19;0.70;99.90
24444;DHT22;13346;50.984;5.822;2024-01-15T07:48:46;0.80;99.90
24444;DHT22;13346;50.984;5.822;2024-01-15T07:51:15;0.80;99.90
24444;DHT22;13346;50.984;5.822;2024-01-15T07:53:42;0.80;99.90
24444;DHT22;13346;50.984;5.822;2024-01-15T07:56:09;0.80;99.90
24444;DHT22;13346;50.984;5.822;2024-01-15T07:58:36;0.80;99.90
24444;DHT22;13346;50.984;5.822;2024-01-15T08:01:04;0.80;99.90
24444;DHT22;13346;50.984;5.822;2024-01-15T08:03:32;0.70;99.90
24444;DHT22;13346;50.984;5.822;2024-01-15T08:05:59;0.70;99.90
24444;DHT22;13346;50.984;5.822;2024-01-15T08:08:28;0.70;99.90
24444;DHT22;13346;50.984;5.822;2024-01-15T08:10:55;0.70;99.90
24444;DHT22;13346;50.984;5.822;2024-01-15T08:13:23;0.70;99.90
24444;DHT22;13346;50.984;5.822;2024-01-15T08:15:53;0.70;99.90
24444;DHT22;13346;50.984;5.822;2024-01-15T08:18:20;0.70;99.90
24444;DHT22;13346;50.984;5.822;2024-01-15T08:20:48;0.70;99.90
24444;DHT22;13346;50.984;5.822;2024-01-15T08:23:17;0.80;99.90
24444;DHT22;13346;50.984;5.822;2024-01-15T08:25:47;0.70;99.90
24444;DHT22;13346;50.984;5.822;2024-01-15T08:28:14;0.70;99.90
24444;DHT22;13346;50.984;5.822;2024-01-15T08:30:41;0.80;99.90
24444;DHT22;13346;50.984;5.822;2024-01-15T08:33:09;0.90;99.90
24444;DHT22;13346;50.984;5.822;2024-01-15T08:35:36;0.90;99.90
24444;DHT22;13346;50.984;5.822;2024-01-15T08:38:03;0.90;99.90
24444;DHT22;13346;50.984;5.822;2024-01-15T08:40:31;1.00;99.90
24444;DHT22;13346;50.984;5.822;2024-01-15T08:43:00;1.10;99.90
24444;DHT22;13346;50.984;5.822;2024-01-15T08:45:27;1.10;99.90
24444;DHT22;13346;50.984;5.822;2024-01-15T08:47:55;1.10;99.90
24444;DHT22;13346;50.984;5.822;2024-01-15T08:50:22;1.10;99.90
24444;DHT22;13346;50.984;5.822;2024-01-15T08:52:49;1.10;99.90
24444;DHT22;13346;50.984;5.822;2024-01-15T08:55:17;1.10;99.90
24444;DHT22;13346;50.984;5.822;2024-01-15T08:57:44;1.10;99.90
24444;DHT22;13346;50.984;5.822;2024-01-15T09:00:14;1.00;99.90
24444;DHT22;13346;50.984;5.822;2024-01-15T09:02:42;1.00;99.90
24444;DHT22;13346;50.984;5.822;2024-01-15T09:05:09;1.00;99.90
24444;DHT22;13346;50.984;5.822;2024-01-15T09:07:37;1.00;99.90
24444;DHT22;13346;50.984;5.822;2024-01-15T09:10:05;0.90;99.90
24444;DHT22;13346;50.984;5.822;2024-01-15T09:12:32;0.80;99.90
24444;DHT22;13346;50.984;5.822;2024-01-15T09:15:00;0.80;99.90
24444;DHT22;13346;50.984;5.822;2024-01-15T09:17:31;0.80;99.90
24444;DHT22;13346;50.984;5.822;2024-01-15T09:19:59;0.80;99.90
24444;DHT22;13346;50.984;5.822;2024-01-15T09:22:26;0.80;99.90
24444;DHT22;13346;50.984;5.822;2024-01-15T09:24:54;0.80;99.90
24444;DHT22;13346;50.984;5.822;2024-01-15T09:27:21;0.70;99.90
24444;DHT22;13346;50.984;5.822;2024-01-15T09:29:48;0.70;99.90
24444;DHT22;13346;50.984;5.822;2024-01-15T09:32:15;1.00;99.90
24444;DHT22;13346;50.984;5.822;2024-01-15T09:34:45;0.60;99.90
24444;DHT22;13346;50.984;5.822;2024-01-15T09:37:14;0.60;99.90
24444;DHT22;13346;50.984;5.822;2024-01-15T09:39:41;0.70;99.90
24444;DHT22;13346;50.984;5.822;2024-01-15T09:42:09;0.70;99.90
24444;DHT22;13346;50.984;5.822;2024-01-15T09:44:38;0.70;99.90
24444;DHT22;13346;50.984;5.822;2024-01-15T09:47:06;0.80;99.90
24444;DHT22;13346;50.984;5.822;2024-01-15T09:49:33;0.80;99.90
24444;DHT22;13346;50.984;5.822;2024-01-15T09:52:02;0.80;99.90
24444;DHT22;13346;50.984;5.822;2024-01-15T09:54:30;0.80;99.90
24444;DHT22;13346;50.984;5.822;2024-01-15T09:56:58;0.80;99.90
24444;DHT22;13346;50.984;5.822;2024-01-15T09:59:27;0.80;99.90
24444;DHT22;13346;50.984;5.822;2024-01-15T10:01:56;0.80;99.90
24444;DHT22;13346;50.984;5.822;2024-01-15T10:04:24;0.80;99.90
24444;DHT22;13346;50.984;5.822;2024-01-15T10:06:52;0.90;99.90
24444;DHT22;13346;50.984;5.822;2024-01-15T10:09:21;0.90;99.90
24444;DHT22;13346;50.984;5.822;2024-01-15T10:11:48;1.00;99.90
24444;DHT22;13346;50.984;5.822;2024-01-15T10:14:15;1.00;99.90
24444;DHT22;13346;50.984;5.822;2024-01-15T10:16:43;1.10;99.90
24444;DHT22;13346;50.984;5.822;2024-01-15T10:19:10;1.10;99.90
24444;DHT22;13346;50.984;5.822;2024-01-15T10:21:38;1.10;99.90
24444;DHT22;13346;50.984;5.822;2024-01-15T10:24:06;1.10;99.90
24444;DHT22;13346;50.984;5.822;2024-01-15T10:26:35;1.10;99.90
24444;DHT22;13346;50.984;5.822;2024-01-15T10:29:02;1.20;99.90
24444;DHT22;13346;50.984;5.822;2024-01-15T10:31:29;1.20;99.90
24444;DHT22;13346;50.984;5.822;2024-01-15T10:34:10;1.20;99.90
24444;DHT22;13346;50.984;5.822;2024-01-15T10:36:41;1.30;99.90
24444;DHT22;13346;50.984;5.822;2024-01-15T10:39:08;1.30;99.90
24444;DHT22;13346;50.984;5.822;2024-01-15T10:41:39;1.40;99.90
24444;DHT22;13346;50.984;5.822;2024-01-15T10:44:06;1.70;99.90
24444;DHT22;13346;50.984;5.822;2024-01-15T10:46:34;1.90;99.90
24444;DHT22;13346;50.984;5.822;2024-01-15T10:49:02;2.10;99.90
24444;DHT22;13346;50.984;5.822;2024-01-15T10:51:30;2.20;99.90
24444;DHT22;13346;50.984;5.822;2024-01-15T10:53:58;2.00;99.90
24444;DHT22;13346;50.984;5.822;2024-01-15T10:56:28;2.10;99.90
24444;DHT22;13346;50.984;5.822;2024-01-15T10:58:58;2.20;99.90
24444;DHT22;13346;50.984;5.822;2024-01-15T11:01:26;2.40;99.90
24444;DHT22;13346;50.984;5.822;2024-01-15T11:03:54;3.40;99.90
24444;DHT22;13346;50.984;5.822;2024-01-15T11:06:24;4.00;99.90
24444;DHT22;13346;50.984;5.822;2024-01-15T11:08:52;4.30;99.90
24444;DHT22;13346;50.984;5.822;2024-01-15T11:11:21;3.90;99.90
24444;DHT22;13346;50.984;5.822;2024-01-15T11:13:49;3.70;99.90
24444;DHT22;13346;50.984;5.822;2024-01-15T11:16:19;4.10;99.90
24444;DHT22;13346;50.984;5.822;2024-01-15T11:19:02;3.90;99.90
24444;DHT22;13346;50.984;5.822;2024-01-15T11:21:31;4.70;99.90
24444;DHT22;13346;50.984;5.822;2024-01-15T11:24:00;5.10;99.90
24444;DHT22;13346;50.984;5.822;2024-01-15T11:26:32;5.50;99.90
24444;DHT22;13346;50.984;5.822;2024-01-15T11:29:00;5.70;99.90
24444;DHT22;13346;50.984;5.822;2024-01-15T11:31:57;6.30;99.90
24444;DHT22;13346;50.984;5.822;2024-01-15T11:37:56;4.70;99.90
24444;DHT22;13346;50.984;5.822;2024-01-15T11:40:36;3.60;99.90
24444;DHT22;13346;50.984;5.822;2024-01-15T11:43:04;3.10;99.90
24444;DHT22;13346;50.984;5.822;2024-01-15T11:45:32;2.90;99.90
24444;DHT22;13346;50.984;5.822;2024-01-15T11:48:14;2.70;99.90
24444;DHT22;13346;50.984;5.822;2024-01-15T11:50:43;2.60;99.90
24444;DHT22;13346;50.984;5.822;2024-01-15T11:53:21;2.40;99.90
24444;DHT22;13346;50.984;5.822;2024-01-15T11:55:51;2.30;99.90
24444;DHT22;13346;50.984;5.822;2024-01-15T11:58:18;2.20;99.90
24444;DHT22;13346;50.984;5.822;2024-01-15T12:00:47;2.20;99.90
24444;DHT22;13346;50.984;5.822;2024-01-15T12:03:17;2.00;99.90
24444;DHT22;13346;50.984;5.822;2024-01-15T12:05:44;1.40;99.90
24444;DHT22;13346;50.984;5.822;2024-01-15T12:08:12;1.40;99.90
24444;DHT22;13346;50.984;5.822;2024-01-15T12:10:40;1.30;99.90
24444;DHT22;13346;50.984;5.822;2024-01-15T12:13:10;1.20;99.90
24444;DHT22;13346;50.984;5.822;2024-01-15T12:15:38;1.40;99.90
24444;DHT22;13346;50.984;5.822;2024-01-15T12:18:08;1.30;99.90
24444;DHT22;13346;50.984;5.822;2024-01-15T12:20:37;1.30;99.90
24444;DHT22;13346;50.984;5.822;2024-01-15T12:23:06;1.40;99.90
24444;DHT22;13346;50.984;5.822;2024-01-15T12:25:33;1.30;99.90
24444;DHT22;13346;50.984;5.822;2024-01-15T12:28:01;1.20;99.90
24444;DHT22;13346;50.984;5.822;2024-01-15T12:30:30;1.10;99.90
24444;DHT22;13346;50.984;5.822;2024-01-15T12:32:58;1.10;99.90
24444;DHT22;13346;50.984;5.822;2024-01-15T12:35:25;1.20;99.90
24444;DHT22;13346;50.984;5.822;2024-01-15T12:37:56;1.30;99.90
24444;DHT22;13346;50.984;5.822;2024-01-15T12:40:24;1.50;99.90
24444;DHT22;13346;50.984;5.822;2024-01-15T12:42:51;1.60;99.90
24444;DHT22;13346;50.984;5.822;2024-01-15T12:45:18;1.70;99.90
24444;DHT22;13346;50.984;5.822;2024-01-15T12:47:46;1.50;99.90
24444;DHT22;13346;50.984;5.822;2024-01-15T12:50:13;1.40;99.90
24444;DHT22;13346;50.984;5.822;2024-01-15T12:52:41;1.50;99.90
24444;DHT22;13346;50.984;5.822;2024-01-15T12:55:10;1.50;99.90
24444;DHT22;13346;50.984;5.822;2024-01-15T12:57:38;1.70;99.90
24444;DHT22;13346;50.984;5.822;2024-01-15T13:00:06;1.80;99.90
24444;DHT22;13346;50.984;5.822;2024-01-15T13:02:38;1.70;99.90
24444;DHT22;13346;50.984;5.822;2024-01-15T13:05:07;1.50;99.90
24444;DHT22;13346;50.984;5.822;2024-01-15T13:07:35;1.40;99.90
24444;DHT22;13346;50.984;5.822;2024-01-15T13:10:03;1.40;99.90
24444;DHT22;13346;50.984;5.822;2024-01-15T13:12:32;1.40;99.90
24444;DHT22;13346;50.984;5.822;2024-01-15T13:15:00;1.40;99.90
24444;DHT22;13346;50.984;5.822;2024-01-15T13:17:29;1.30;99.90
24444;DHT22;13346;50.984;5.822;2024-01-15T13:19:56;1.30;99.90
24444;DHT22;13346;50.984;5.822;2024-01-15T13:22:24;1.30;99.90
24444;DHT22;13346;50.984;5.822;2024-01-15T13:24:55;1.30;99.90
24444;DHT22;13346;50.984;5.822;2024-01-15T13:27:23;1.40;99.90
24444;DHT22;13346;50.984;5.822;2024-01-15T13:29:52;1.40;99.90
24444;DHT22;13346;50.984;5.822;2024-01-15T13:32:23;1.50;99.90
24444;DHT22;13346;50.984;5.822;2024-01-15T13:34:51;1.50;99.90
24444;DHT22;13346;50.984;5.822;2024-01-15T13:37:18;1.60;99.90
24444;DHT22;13346;50.984;5.822;2024-01-15T13:39:45;1.60;99.90
24444;DHT22;13346;50.984;5.822;2024-01-15T13:42:13;1.50;99.90
24444;DHT22;13346;50.984;5.822;2024-01-15T13:44:41;1.60;99.90
24444;DHT22;13346;50.984;5.822;2024-01-15T13:47:10;1.60;99.90
24444;DHT22;13346;50.984;5.822;2024-01-15T13:49:37;1.60;99.90
24444;DHT22;13346;50.984;5.822;2024-01-15T13:52:04;1.50;99.90
24444;DHT22;13346;50.984;5.822;2024-01-15T13:54:32;1.60;99.90
24444;DHT22;13346;50.984;5.822;2024-01-15T13:56:59;1.50;99.90
24444;DHT22;13346;50.984;5.822;2024-01-15T13:59:27;1.50;99.90
24444;DHT22;13346;50.984;5.822;2024-01-15T14:01:54;1.60;99.90
24444;DHT22;13346;50.984;5.822;2024-01-15T14:04:24;1.60;99.90
24444;DHT22;13346;50.984;5.822;2024-01-15T14:06:51;1.50;99.90
24444;DHT22;13346;50.984;5.822;2024-01-15T14:09:18;1.50;99.90
24444;DHT22;13346;50.984;5.822;2024-01-15T14:11:47;1.50;99.90
24444;DHT22;13346;50.984;5.822;2024-01-15T14:14:14;1.60;99.90
24444;DHT22;13346;50.984;5.822;2024-01-15T14:16:42;1.60;99.90
24444;DHT22;13346;50.984;5.822;2024-01-15T14:19:10;1.60;99.90
24444;DHT22;13346;50.984;5.822;2024-01-15T14:21:39;1.90;99.90
24444;DHT22;13346;50.984;5.822;2024-01-15T14:24:06;1.80;99.90
24444;DHT22;13346;50.984;5.822;2024-01-15T14:26:33;1.80;99.90
24444;DHT22;13346;50.984;5.822;2024-01-15T14:29:01;1.80;99.90
24444;DHT22;13346;50.984;5.822;2024-01-15T14:31:28;2.00;99.90
24444;DHT22;13346;50.984;5.822;2024-01-15T14:33:55;2.00;99.90
24444;DHT22;13346;50.984;5.822;2024-01-15T14:36:24;2.00;99.90
24444;DHT22;13346;50.984;5.822;2024-01-15T14:38:53;2.10;99.90
24444;DHT22;13346;50.984;5.822;2024-01-15T14:41:20;2.00;99.90
24444;DHT22;13346;50.984;5.822;2024-01-15T14:43:47;2.00;99.90
24444;DHT22;13346;50.984;5.822;2024-01-15T14:46:14;1.90;99.90
24444;DHT22;13346;50.984;5.822;2024-01-15T14:48:42;1.80;99.90
24444;DHT22;13346;50.984;5.822;2024-01-15T14:51:10;1.80;99.90
24444;DHT22;13346;50.984;5.822;2024-01-15T14:53:38;1.80;99.90
24444;DHT22;13346;50.984;5.822;2024-01-15T14:56:06;1.80;99.90
24444;DHT22;13346;50.984;5.822;2024-01-15T14:58:34;1.90;99.90
24444;DHT22;13346;50.984;5.822;2024-01-15T15:01:04;1.80;99.90
24444;DHT22;13346;50.984;5.822;2024-01-15T15:03:31;1.70;99.90
24444;DHT22;13346;50.984;5.822;2024-01-15T15:05:58;1.70;99.90
24444;DHT22;13346;50.984;5.822;2024-01-15T15:08:26;1.60;99.90
24444;DHT22;13346;50.984;5.822;2024-01-15T15:10:54;1.70;99.90
24444;DHT22;13346;50.984;5.822;2024-01-15T15:13:24;1.70;99.90
24444;DHT22;13346;50.984;5.822;2024-01-15T15:15:51;1.60;99.90
24444;DHT22;13346;50.984;5.822;2024-01-15T15:18:19;1.60;99.90
24444;DHT22;13346;50.984;5.822;2024-01-15T15:20:47;1.50;99.90
24444;DHT22;13346;50.984;5.822;2024-01-15T15:23:15;1.50;99.90
24444;DHT22;13346;50.984;5.822;2024-01-15T15:25:42;1.40;99.90
24444;DHT22;13346;50.984;5.822;2024-01-15T15:28:10;1.50;99.90
24444;DHT22;13346;50.984;5.822;2024-01-15T15:30:38;1.40;99.90
24444;DHT22;13346;50.984;5.822;2024-01-15T15:33:06;1.40;99.90
24444;DHT22;13346;50.984;5.822;2024-01-15T15:35:33;1.40;99.90
24444;DHT22;13346;50.984;5.822;2024-01-15T15:38:00;1.40;99.90
24444;DHT22;13346;50.984;5.822;2024-01-15T15:40:27;1.40;99.90
24444;DHT22;13346;50.984;5.822;2024-01-15T15:42:55;1.30;99.90
24444;DHT22;13346;50.984;5.822;2024-01-15T15:45:22;1.30;99.90
24444;DHT22;13346;50.984;5.822;2024-01-15T15:47:51;1.30;99.90
24444;DHT22;13346;50.984;5.822;2024-01-15T15:50:18;1.30;99.90
24444;DHT22;13346;50.984;5.822;2024-01-15T15:52:45;1.30;99.90